createdAt,value
2022-11-17T00:00:33.166Z,41.13
2022-11-17T00:02:59.658Z,41.35
2022-11-17T00:05:26.328Z,41.45
2022-11-17T00:07:52.848Z,41.32
2022-11-17T00:10:19.633Z,41.20
2022-11-17T00:13:04.680Z,41.23
2022-11-17T00:15:31.438Z,41.11
2022-11-17T00:18:16.661Z,41.34
2022-11-17T00:21:01.884Z,41.26
2022-11-17T00:23:47.155Z,41.10
2022-11-17T00:26:22.566Z,41.29
2022-11-17T00:28:54.526Z,41.03
2022-11-17T00:31:41.371Z,40.99
2022-11-17T00:34:12.731Z,41.42
2022-11-17T00:36:42.699Z,41.28
2022-11-17T00:39:10.286Z,41.08
2022-11-17T00:41:36.916Z,41.08
2022-11-17T00:44:03.905Z,41.40
2022-11-17T00:46:31.129Z,41.31
2022-11-17T00:48:57.690Z,41.00
2022-11-17T00:51:25.428Z,40.98
2022-11-17T00:53:52.179Z,40.82
2022-11-17T00:56:18.992Z,41.15
2022-11-17T00:58:45.756Z,40.92
2022-11-17T01:01:13.009Z,40.96
2022-11-17T01:03:39.697Z,40.79
2022-11-17T01:06:15.618Z,41.04
2022-11-17T01:08:42.715Z,40.99
2022-11-17T01:11:13.154Z,41.12
2022-11-17T01:13:40.754Z,41.03
2022-11-17T01:16:20.545Z,40.82
2022-11-17T01:18:48.792Z,40.80
2022-11-17T01:21:24.226Z,41.00
2022-11-17T01:23:53.450Z,40.70
2022-11-17T01:26:22.941Z,40.67
2022-11-17T01:28:50.216Z,40.82
2022-11-17T01:31:19.228Z,40.72
2022-11-17T01:33:46.724Z,40.56
2022-11-17T01:36:21.630Z,40.54
2022-11-17T01:38:48.258Z,40.57
2022-11-17T01:41:18.562Z,40.55
2022-11-17T01:43:51.230Z,40.68
2022-11-17T01:46:20.723Z,40.77
2022-11-17T01:48:49.955Z,40.52
2022-11-17T01:51:17.534Z,40.47
2022-11-17T01:53:45.298Z,40.66
2022-11-17T01:56:20.208Z,40.49
2022-11-17T01:58:51.334Z,40.43
2022-11-17T02:01:18.161Z,40.23
2022-11-17T02:03:48.203Z,40.52
2022-11-17T02:06:31.048Z,40.44
2022-11-17T02:08:58.239Z,40.42
2022-11-17T02:11:26.083Z,40.24
2022-11-17T02:13:55.939Z,40.27
2022-11-17T02:16:22.496Z,40.28
2022-11-17T02:18:49.249Z,40.26
2022-11-17T02:21:52.385Z,40.11
2022-11-17T02:24:18.930Z,40.10
2022-11-17T02:27:00.450Z,40.20
2022-11-17T02:30:08.690Z,40.29
2022-11-17T02:32:50.720Z,40.28
2022-11-17T02:35:39.310Z,40.24
2022-11-17T02:38:41.112Z,39.86
2022-11-17T02:41:13.871Z,40.00
2022-11-17T02:44:37.100Z,40.09
2022-11-17T02:47:12.600Z,40.17
2022-11-17T02:49:44.730Z,40.13
2022-11-17T02:52:12.738Z,40.23
2022-11-17T02:54:39.229Z,39.83
2022-11-17T02:57:05.817Z,40.03
2022-11-17T02:59:40.508Z,40.01
2022-11-17T03:02:33.687Z,40.12
2022-11-17T03:05:29.925Z,39.96
2022-11-17T03:07:59.555Z,40.01
2022-11-17T03:10:39.057Z,39.68
2022-11-17T03:13:44.115Z,39.87
2022-11-17T03:16:29.096Z,40.11
2022-11-17T03:19:19.464Z,40.08
2022-11-17T03:22:07.666Z,39.73
2022-11-17T03:24:39.192Z,40.06
2022-11-17T03:27:25.477Z,39.69
2022-11-17T03:29:58.292Z,40.04
2022-11-17T03:32:27.177Z,39.99
2022-11-17T03:35:00.030Z,39.96
2022-11-17T03:37:31.383Z,39.79
2022-11-17T03:40:04.385Z,39.93
2022-11-17T03:42:34.919Z,39.90
2022-11-17T03:47:24.044Z,39.61
2022-11-17T03:49:57.641Z,39.71
2022-11-17T03:52:25.197Z,39.99
2022-11-17T03:54:52.956Z,39.59
2022-11-17T03:59:59.112Z,39.59
2022-11-17T04:02:26.779Z,39.26
2022-11-17T04:05:05.433Z,39.33
2022-11-17T04:07:32.871Z,39.78
2022-11-17T04:09:59.455Z,39.80
2022-11-17T04:12:46.723Z,39.41
2022-11-17T04:15:32.222Z,39.74
2022-11-17T04:17:59.514Z,39.80
2022-11-17T04:20:26.412Z,39.62
2022-11-17T04:23:08.012Z,40.03
2022-11-17T04:26:00.077Z,40.69
2022-11-17T04:28:37.690Z,40.75
2022-11-17T04:31:04.395Z,41.10
2022-11-17T04:33:31.071Z,41.21
2022-11-17T04:35:57.676Z,41.52
2022-11-17T04:38:24.264Z,41.91
2022-11-17T04:41:09.525Z,42.26
2022-11-17T04:43:38.650Z,42.57
2022-11-17T04:46:05.614Z,42.46
2022-11-17T04:48:32.307Z,42.28
2022-11-17T04:50:58.872Z,42.58
2022-11-17T04:53:25.447Z,42.55
2022-11-17T04:55:51.980Z,42.26
2022-11-17T04:58:18.551Z,42.28
2022-11-17T05:00:45.031Z,42.32
2022-11-17T05:03:12.102Z,42.30
2022-11-17T05:05:38.688Z,42.41
2022-11-17T05:08:05.320Z,42.44
2022-11-17T05:10:50.602Z,42.35
2022-11-17T05:13:24.982Z,42.46
2022-11-17T05:16:14.995Z,42.23
2022-11-17T05:18:43.465Z,42.13
2022-11-17T05:21:11.360Z,42.15
2022-11-17T05:23:56.707Z,42.31
2022-11-17T05:26:35.368Z,42.32
2022-11-17T05:29:04.332Z,42.36
2022-11-17T05:31:31.847Z,42.16
2022-11-17T05:33:58.867Z,42.13
2022-11-17T05:36:26.520Z,42.29
2022-11-17T05:38:54.442Z,42.30
2022-11-17T05:41:22.241Z,42.30
2022-11-17T05:43:50.405Z,42.29
2022-11-17T05:46:18.703Z,42.29
2022-11-17T05:48:46.279Z,42.26
2022-11-17T05:51:13.005Z,42.74
2022-11-17T05:53:39.624Z,43.23
2022-11-17T05:56:30.983Z,43.28
2022-11-17T05:59:28.073Z,43.43
2022-11-17T06:02:11.471Z,43.13
2022-11-17T06:04:39.258Z,43.01
2022-11-17T06:07:06.143Z,43.02
2022-11-17T06:09:36.611Z,42.89
2022-11-17T06:12:06.260Z,42.96
2022-11-17T06:14:34.429Z,42.96
2022-11-17T06:17:10.040Z,43.01
2022-11-17T06:19:43.223Z,43.38
2022-11-17T06:22:12.984Z,43.27
2022-11-17T06:24:41.894Z,43.16
2022-11-17T06:27:09.658Z,43.03
2022-11-17T06:29:42.452Z,42.83
2022-11-17T06:32:15.659Z,42.96
2022-11-17T06:34:49.119Z,42.69
2022-11-17T06:37:18.715Z,42.34
2022-11-17T06:39:45.216Z,42.63
2022-11-17T06:42:11.967Z,42.59
2022-11-17T06:44:38.473Z,42.59
2022-11-17T06:47:05.227Z,42.56
2022-11-17T06:49:31.781Z,42.34
2022-11-17T06:51:58.432Z,42.63
2022-11-17T06:54:25.004Z,42.59
2022-11-17T06:56:52.447Z,42.67
2022-11-17T06:59:18.972Z,42.70
2022-11-17T07:01:45.643Z,42.72
2022-11-17T07:04:12.428Z,42.52
2022-11-17T07:06:39.303Z,42.81
2022-11-17T07:09:06.058Z,43.07
2022-11-17T07:11:36.185Z,43.58
2022-11-17T07:14:03.015Z,43.82
2022-11-17T07:18:46.344Z,43.34
2022-11-17T07:21:14.496Z,43.13
2022-11-17T07:23:42.965Z,43.12
2022-11-17T07:26:09.599Z,42.97
2022-11-17T07:28:36.751Z,42.61
2022-11-17T07:31:05.852Z,42.81
2022-11-17T07:33:33.102Z,42.53
2022-11-17T07:36:09.375Z,42.73
2022-11-17T07:38:38.123Z,42.49
2022-11-17T07:41:05.993Z,42.15
2022-11-17T07:43:34.366Z,42.28
2022-11-17T07:46:10.504Z,42.15
2022-11-17T07:48:37.316Z,42.12
2022-11-17T07:51:05.367Z,42.29
2022-11-17T07:53:34.459Z,42.18
2022-11-17T07:56:09.719Z,42.11
2022-11-17T07:58:38.095Z,42.45
2022-11-17T08:01:10.001Z,42.03
2022-11-17T08:03:36.754Z,41.96
2022-11-17T08:06:08.006Z,42.05
2022-11-17T08:08:35.779Z,41.71
2022-11-17T08:11:11.398Z,41.46
2022-11-17T08:13:40.596Z,41.58
2022-11-17T08:16:09.202Z,41.75
2022-11-17T08:18:36.991Z,41.88
2022-11-17T08:23:35.879Z,41.47
2022-11-17T08:26:03.507Z,41.56
2022-11-17T08:28:30.508Z,41.41
2022-11-17T08:30:57.188Z,41.50
2022-11-17T08:33:23.766Z,41.24
2022-11-17T08:35:50.395Z,41.60
2022-11-17T08:38:17.108Z,41.45
2022-11-17T08:40:44.320Z,41.36
2022-11-17T08:43:10.798Z,41.41
2022-11-17T08:45:37.442Z,41.36
2022-11-17T08:48:04.350Z,41.20
2022-11-17T08:50:31.079Z,41.46
2022-11-17T08:52:57.600Z,41.58
2022-11-17T08:55:26.318Z,41.12
2022-11-17T08:57:53.046Z,41.29
2022-11-17T09:00:21.729Z,41.32
2022-11-17T09:02:48.543Z,41.47
2022-11-17T09:05:15.223Z,41.16
2022-11-17T09:07:41.771Z,41.40
2022-11-17T09:10:11.020Z,41.19
2022-11-17T09:12:37.730Z,41.40
2022-11-17T09:15:05.358Z,41.65
2022-11-17T09:17:32.002Z,42.00
2022-11-17T09:19:58.566Z,41.80
2022-11-17T09:22:25.082Z,41.59
2022-11-17T09:24:52.053Z,41.71
2022-11-17T09:27:18.601Z,41.40
2022-11-17T09:29:45.187Z,41.87
2022-11-17T09:32:12.407Z,41.68
2022-11-17T09:34:39.054Z,41.90
2022-11-17T09:37:05.562Z,42.14
2022-11-17T09:39:32.190Z,42.01
2022-11-17T09:41:58.847Z,41.95
2022-11-17T09:44:36.618Z,42.38
2022-11-17T09:47:23.164Z,42.18
2022-11-17T09:49:59.479Z,42.17
2022-11-17T09:52:26.994Z,42.33
2022-11-17T09:54:58.250Z,42.14
2022-11-17T09:57:36.902Z,42.56
2022-11-17T10:00:13.010Z,42.26
2022-11-17T10:02:39.894Z,42.33
2022-11-17T10:05:11.996Z,42.32
2022-11-17T10:07:46.850Z,42.77
2022-11-17T10:10:19.296Z,42.64
2022-11-17T10:12:54.840Z,42.72
2022-11-17T10:15:29.324Z,42.43
2022-11-17T10:17:55.950Z,42.59
2022-11-17T10:20:22.755Z,42.48
2022-11-17T10:22:51.912Z,42.64
2022-11-17T10:25:36.033Z,42.77
2022-11-17T10:28:03.147Z,42.53
2022-11-17T10:30:29.703Z,42.54
2022-11-17T10:35:36.039Z,42.92
2022-11-17T10:38:08.793Z,42.44
2022-11-17T10:40:58.264Z,42.63
2022-11-17T10:43:32.591Z,42.24
2022-11-17T10:46:02.185Z,41.92
2022-11-17T10:48:37.442Z,41.83
2022-11-17T10:51:25.486Z,41.75
2022-11-17T10:54:21.452Z,42.13
2022-11-17T10:56:51.549Z,41.79
2022-11-17T10:59:41.867Z,42.09
2022-11-17T11:02:38.314Z,41.89
2022-11-17T11:05:17.258Z,42.24
2022-11-17T11:07:44.486Z,42.02
2022-11-17T11:10:29.792Z,41.92
2022-11-17T11:13:15.110Z,42.31
2022-11-17T11:15:42.001Z,42.29
2022-11-17T11:18:17.185Z,42.48
2022-11-17T11:21:14.341Z,42.38
2022-11-17T11:23:59.511Z,42.25
2022-11-17T11:26:44.115Z,41.67
2022-11-17T11:29:41.316Z,41.60
2022-11-17T11:32:10.731Z,41.38
2022-11-17T11:34:49.358Z,41.52
2022-11-17T11:37:16.431Z,41.42
2022-11-17T11:39:59.182Z,41.82
2022-11-17T11:42:40.991Z,41.53
2022-11-17T11:45:22.358Z,41.76
2022-11-17T11:48:13.768Z,41.77
2022-11-17T11:50:59.145Z,41.70
2022-11-17T11:56:09.552Z,41.87
2022-11-17T11:58:42.076Z,42.34
2022-11-17T12:01:12.107Z,41.97
2022-11-17T12:04:04.380Z,42.36
2022-11-17T12:06:43.055Z,42.34
2022-11-17T12:09:33.593Z,41.89
2022-11-17T12:12:06.895Z,42.02
2022-11-17T12:14:36.721Z,42.20
2022-11-17T12:17:14.812Z,42.04
2022-11-17T12:19:44.307Z,42.05
2022-11-17T12:22:41.466Z,42.09
2022-11-17T12:25:14.226Z,42.19
2022-11-17T12:27:42.793Z,42.34
2022-11-17T12:30:31.123Z,42.38
2022-11-17T12:32:59.797Z,42.49
2022-11-17T12:35:33.974Z,42.23
2022-11-17T12:38:21.235Z,42.31
2022-11-17T12:40:52.281Z,42.48
2022-11-17T12:43:21.367Z,42.52
2022-11-17T12:45:53.607Z,42.26
2022-11-17T12:48:33.319Z,42.59
2022-11-17T12:51:26.779Z,42.20
2022-11-17T12:54:20.683Z,42.06
2022-11-17T12:57:05.502Z,42.18
2022-11-17T12:59:56.505Z,42.20
2022-11-17T13:02:34.918Z,41.79
2022-11-17T13:05:16.301Z,41.44
2022-11-17T13:07:42.876Z,41.39
2022-11-17T13:10:27.825Z,41.32
2022-11-17T13:13:13.180Z,41.51
2022-11-17T13:15:42.654Z,41.20
2022-11-17T13:18:36.396Z,41.36
2022-11-17T13:21:05.112Z,41.52
2022-11-17T13:23:33.597Z,41.52
2022-11-17T13:26:21.472Z,41.61
2022-11-17T13:29:01.418Z,41.68
2022-11-17T13:31:28.040Z,41.56
2022-11-17T13:33:58.139Z,41.47
2022-11-17T13:36:27.102Z,41.61
2022-11-17T13:38:57.272Z,41.87
2022-11-17T13:41:25.742Z,41.49
2022-11-17T13:43:54.008Z,41.48
2022-11-17T13:46:21.095Z,41.67
2022-11-17T13:48:49.850Z,41.58
2022-11-17T13:51:25.283Z,41.73
2022-11-17T13:54:00.965Z,41.85
2022-11-17T13:56:38.463Z,41.88
2022-11-17T13:59:27.387Z,41.38
2022-11-17T14:02:15.956Z,41.37
2022-11-17T14:05:14.975Z,41.61
2022-11-17T14:07:43.503Z,41.90
2022-11-17T14:10:25.352Z,41.75
2022-11-17T14:12:53.130Z,41.87
2022-11-17T14:15:24.541Z,41.87
2022-11-17T14:17:56.441Z,42.04
2022-11-17T14:20:25.808Z,42.16
2022-11-17T14:23:10.386Z,41.87
2022-11-17T14:25:45.308Z,41.69
2022-11-17T14:28:20.708Z,41.96
2022-11-17T14:30:55.010Z,41.69
2022-11-17T14:33:21.836Z,41.66
2022-11-17T14:35:55.224Z,41.81
2022-11-17T14:38:22.673Z,41.86
2022-11-17T14:40:53.547Z,41.78
2022-11-17T14:43:22.365Z,41.61
2022-11-17T14:45:50.222Z,41.66
2022-11-17T14:48:20.174Z,41.60
2022-11-17T14:50:48.134Z,41.67
2022-11-17T14:53:14.904Z,41.41
2022-11-17T14:55:41.455Z,41.71
2022-11-17T14:58:09.935Z,41.69
2022-11-17T15:00:36.729Z,41.37
2022-11-17T15:03:03.402Z,41.42
2022-11-17T15:05:30.143Z,41.49
2022-11-17T15:07:56.691Z,41.54
2022-11-17T15:10:23.399Z,41.64
2022-11-17T15:12:50.000Z,41.59
2022-11-17T15:15:17.985Z,41.15
2022-11-17T15:17:44.825Z,41.17
2022-11-17T15:20:11.950Z,41.53
2022-11-17T15:22:38.580Z,41.03
2022-11-17T15:25:05.660Z,41.10
2022-11-17T15:27:32.288Z,41.25
2022-11-17T15:29:59.190Z,41.38
2022-11-17T15:32:27.231Z,41.38
2022-11-17T15:34:53.948Z,40.92
2022-11-17T15:37:20.452Z,40.89
2022-11-17T15:39:47.008Z,40.74
2022-11-17T15:42:13.535Z,40.81
2022-11-17T15:44:41.010Z,40.66
2022-11-17T15:47:07.560Z,40.58
2022-11-17T15:49:34.219Z,40.64
2022-11-17T15:52:00.816Z,40.75
2022-11-17T15:54:27.335Z,40.77
2022-11-17T15:56:53.918Z,40.74
2022-11-17T15:59:20.657Z,40.22
2022-11-17T16:01:47.742Z,40.34
2022-11-17T16:04:18.163Z,40.12
2022-11-17T16:06:46.667Z,39.63
2022-11-17T16:09:13.567Z,39.61
2022-11-17T16:11:41.058Z,39.05
2022-11-17T16:14:07.663Z,38.88
2022-11-17T16:16:38.743Z,38.97
2022-11-17T16:19:06.218Z,38.65
2022-11-17T16:21:33.073Z,38.84
2022-11-17T16:24:00.835Z,38.58
2022-11-17T16:26:28.812Z,38.65
2022-11-17T16:29:00.509Z,38.83
2022-11-17T16:31:29.495Z,38.80
2022-11-17T16:34:01.121Z,38.77
2022-11-17T16:36:35.924Z,39.81
2022-11-17T16:39:05.986Z,40.21
2022-11-17T16:41:37.934Z,40.17
2022-11-17T16:44:12.586Z,39.86
2022-11-17T16:46:42.160Z,39.58
2022-11-17T16:49:11.680Z,39.71
2022-11-17T16:51:38.854Z,39.78
2022-11-17T16:54:07.088Z,39.64
2022-11-17T16:56:34.334Z,40.06
2022-11-17T16:59:00.953Z,39.80
2022-11-17T17:01:33.103Z,40.14
2022-11-17T17:04:01.058Z,40.07
2022-11-17T17:06:28.095Z,40.13
2022-11-17T17:08:59.602Z,39.94
2022-11-17T17:11:28.946Z,39.78
2022-11-17T17:13:56.495Z,39.98
2022-11-17T17:16:25.010Z,39.70
2022-11-17T17:18:56.273Z,39.55
2022-11-17T17:21:23.801Z,39.82
2022-11-17T17:23:50.660Z,39.46
2022-11-17T17:26:19.654Z,39.68
2022-11-17T17:28:48.364Z,39.78
2022-11-17T17:31:21.370Z,39.45
2022-11-17T17:33:50.138Z,39.80
2022-11-17T17:36:21.691Z,39.69
2022-11-17T17:38:55.077Z,39.36
2022-11-17T17:41:24.404Z,39.32
2022-11-17T17:43:59.127Z,39.82
2022-11-17T17:46:29.562Z,39.60
2022-11-17T17:48:59.273Z,39.54
2022-11-17T17:53:53.507Z,39.49
2022-11-17T17:56:21.556Z,39.63
2022-11-17T17:58:51.881Z,39.36
2022-11-17T18:01:30.209Z,39.70
2022-11-17T18:04:01.339Z,39.55
2022-11-17T18:06:28.517Z,39.72
2022-11-17T18:08:55.120Z,39.65
2022-11-17T18:11:25.539Z,39.57
2022-11-17T18:13:53.221Z,39.55
2022-11-17T18:16:25.415Z,39.40
2022-11-17T18:18:59.039Z,40.28
2022-11-17T18:21:28.517Z,40.33
2022-11-17T18:23:56.395Z,40.14
2022-11-17T18:26:26.249Z,40.26
2022-11-17T18:28:56.371Z,40.09
2022-11-17T18:31:25.076Z,40.16
2022-11-17T18:33:59.751Z,39.77
2022-11-17T18:36:27.274Z,39.64
2022-11-17T18:41:11.764Z,39.54
2022-11-17T18:43:39.142Z,39.54
2022-11-17T18:46:09.288Z,39.48
2022-11-17T18:48:38.307Z,39.33
2022-11-17T18:51:19.562Z,39.62
2022-11-17T18:53:47.411Z,39.48
2022-11-17T18:56:16.531Z,39.40
2022-11-17T18:58:43.381Z,38.99
2022-11-17T19:01:14.945Z,39.23
2022-11-17T19:03:44.640Z,39.24
2022-11-17T19:06:12.664Z,38.96
2022-11-17T19:08:39.571Z,39.23
2022-11-17T19:11:08.341Z,39.14
2022-11-17T19:13:37.296Z,38.79
2022-11-17T19:16:10.367Z,38.96
2022-11-17T19:18:38.135Z,39.11
2022-11-17T19:21:14.417Z,38.98
2022-11-17T19:23:48.012Z,38.99
2022-11-17T19:26:23.031Z,39.09
2022-11-17T19:28:50.407Z,38.88
2022-11-17T19:31:19.621Z,38.83
2022-11-17T19:33:47.816Z,38.91
2022-11-17T19:36:22.793Z,39.09
2022-11-17T19:38:54.155Z,39.06
2022-11-17T19:41:28.280Z,39.04
2022-11-17T19:43:57.590Z,39.17
2022-11-17T19:46:25.638Z,39.30
2022-11-17T19:48:53.078Z,39.09
2022-11-17T19:51:29.164Z,39.04
2022-11-17T19:53:58.619Z,39.34
2022-11-17T19:56:25.898Z,39.12
2022-11-17T19:58:53.767Z,39.05
2022-11-17T20:01:26.196Z,39.32
2022-11-17T20:03:56.190Z,39.33
2022-11-17T20:06:27.169Z,39.14
2022-11-17T20:08:57.323Z,39.30
2022-11-17T20:11:26.765Z,39.37
2022-11-17T20:13:54.326Z,39.16
2022-11-17T20:16:26.508Z,39.19
2022-11-17T20:18:54.386Z,39.19
2022-11-17T20:21:21.586Z,39.16
2022-11-17T20:23:48.984Z,39.17
2022-11-17T20:26:18.996Z,39.96
2022-11-17T20:28:46.761Z,40.81
2022-11-17T20:31:19.377Z,41.13
2022-11-17T20:33:46.985Z,41.33
2022-11-17T20:36:21.702Z,41.75
2022-11-17T20:38:56.345Z,41.86
2022-11-17T20:41:24.296Z,42.59
2022-11-17T20:43:56.340Z,42.72
2022-11-17T20:46:24.154Z,42.75
2022-11-17T20:48:53.088Z,43.04
2022-11-17T20:51:23.211Z,42.96
2022-11-17T20:53:50.400Z,43.15
2022-11-17T20:56:17.435Z,43.52
2022-11-17T20:58:44.549Z,43.81
2022-11-17T21:01:16.656Z,44.01
2022-11-17T21:03:43.534Z,43.85
2022-11-17T21:06:10.913Z,44.19
2022-11-17T21:11:00.611Z,43.63
2022-11-17T21:13:28.732Z,44.01
2022-11-17T21:16:09.527Z,44.11
2022-11-17T21:18:37.767Z,44.38
2022-11-17T21:21:08.583Z,44.47
2022-11-17T21:23:37.208Z,44.57
2022-11-17T21:26:07.975Z,44.41
2022-11-17T21:28:36.845Z,44.49
2022-11-17T21:31:09.843Z,44.55
2022-11-17T21:33:37.551Z,44.28
2022-11-17T21:36:09.034Z,44.01
2022-11-17T21:38:35.973Z,43.78
2022-11-17T21:41:17.163Z,43.51
2022-11-17T21:43:45.946Z,43.95
2022-11-17T21:46:15.296Z,44.09
2022-11-17T21:48:42.398Z,44.11
2022-11-17T21:51:16.030Z,44.30
2022-11-17T21:53:43.049Z,44.25
2022-11-17T21:56:09.913Z,44.03
2022-11-17T22:02:57.052Z,44.07
2022-11-17T22:10:39.831Z,44.34
2022-11-17T22:13:08.238Z,44.45
2022-11-17T22:15:35.440Z,44.44
2022-11-17T22:18:02.408Z,44.47
2022-11-17T22:20:29.143Z,44.28
2022-11-17T22:22:58.562Z,44.33
2022-11-17T22:25:44.130Z,43.98
2022-11-17T22:28:11.930Z,43.56
2022-11-17T22:30:39.336Z,42.93
2022-11-17T22:33:05.901Z,42.75
2022-11-17T22:35:32.538Z,42.69
2022-11-17T22:37:59.194Z,42.41
2022-11-17T22:40:25.804Z,42.08
2022-11-17T22:42:52.814Z,41.82
2022-11-17T22:45:19.559Z,41.88
2022-11-17T22:47:46.252Z,41.97
2022-11-17T22:50:12.989Z,41.67
2022-11-17T22:52:39.819Z,41.62
2022-11-17T22:55:06.885Z,41.67
2022-11-17T22:57:33.554Z,41.58
2022-11-17T23:00:00.121Z,41.48
2022-11-17T23:02:26.787Z,41.48
2022-11-17T23:07:17.991Z,41.38
2022-11-17T23:09:44.616Z,41.29
2022-11-17T23:12:11.120Z,41.33
2022-11-17T23:14:37.752Z,41.25
2022-11-17T23:17:04.298Z,41.13
2022-11-17T23:19:30.847Z,40.95
2022-11-17T23:21:58.055Z,41.10
2022-11-17T23:24:24.894Z,40.95
2022-11-17T23:26:51.447Z,41.09
2022-11-17T23:29:18.696Z,40.97
2022-11-17T23:31:45.404Z,40.87
2022-11-17T23:34:12.064Z,41.11
2022-11-17T23:36:39.265Z,40.82
2022-11-17T23:39:06.523Z,40.81
2022-11-17T23:41:33.451Z,40.73
2022-11-17T23:44:00.976Z,40.80
2022-11-17T23:46:28.767Z,40.66
2022-11-17T23:48:57.838Z,40.61
2022-11-17T23:51:26.467Z,40.90
2022-11-17T23:53:54.269Z,40.72
2022-11-17T23:56:23.188Z,40.94
2022-11-17T23:58:51.952Z,40.90
